Time;durP1;ratioP1;P1;durP2;ratioP2;P2;SDS_P1;SDS_P2;PMS_P1;PMS_P2;Temp;Humidity;BMP_temperature;BMP_pressure;BME280_temperature;BME280_humidity;BME280_pressure;Samples;Min_cycle;Max_cycle;Signal;HPM_P1;HPM_P2
2020/12/06 00:02:14;;;;;;;162.18;47.92;;;;;;;;;;5007040;28;20061;-85
2020/12/06 00:04:40;;;;;;;181.27;51.72;;;;;;;;;;5021125;28;20049;-85
2020/12/06 00:07:06;;;;;;;99.38;43.08;;;;;;;;;;5017602;28;20417;-85
2020/12/06 00:12:18;;;;;;;91.85;38.40;;;;;;;;;;838301;22;20291;-85
2020/12/06 00:14:44;;;;;;;94.57;39.88;;;;;;;;;;5038214;28;20055;-85
2020/12/06 00:17:10;;;;;;;82.95;38.22;;;;;;;;;;5059366;28;20068;-85
2020/12/06 00:19:36;;;;;;;248.77;51.63;;;;;;;;;;5059841;28;20060;-85
2020/12/06 00:22:05;;;;;;;152.52;44.55;;;;;;;;;;5059567;28;20041;-85
2020/12/06 00:24:32;;;;;;;273.55;53.42;;;;;;;;;;5045481;28;20048;-85
2020/12/06 00:26:59;;;;;;;121.18;42.03;;;;;;;;;;5040483;28;20053;-85
2020/12/06 00:29:25;;;;;;;339.52;56.40;;;;;;;;;;5058995;28;20051;-85
2020/12/06 00:31:51;;;;;;;232.27;49.60;;;;;;;;;;5059691;28;20049;-87
2020/12/06 00:34:17;;;;;;;89.15;37.88;;;;;;;;;;5058399;28;20122;-85
2020/12/06 00:36:48;;;;;;;123.05;41.72;;;;;;;;;;5055524;28;20067;-84
2020/12/06 00:39:14;;;;;;;86.15;39.17;;;;;;;;;;5059478;28;20049;-85
2020/12/06 00:41:40;;;;;;;187.73;46.95;;;;;;;;;;5059380;28;20079;-85
2020/12/06 00:44:06;;;;;;;92.95;39.17;;;;;;;;;;5059993;28;20049;-85
2020/12/06 00:46:34;;;;;;;91.75;38.88;;;;;;;;;;5041783;28;20045;-85
2020/12/06 00:49:00;;;;;;;88.85;39.33;;;;;;;;;;5039559;28;20049;-86
2020/12/06 00:51:26;;;;;;;81.97;38.30;;;;;;;;;;5039708;28;20056;-85
2020/12/06 00:54:00;;;;;;;77.45;36.47;;;;;;;;;;5039077;28;20081;-85
2020/12/06 00:56:26;;;;;;;90.97;40.70;;;;;;;;;;5039142;28;20049;-86
2020/12/06 00:58:52;;;;;;;87.78;39.65;;;;;;;;;;5037296;28;20055;-86
2020/12/06 01:01:19;;;;;;;82.90;38.08;;;;;;;;;;5038341;28;20053;-86
2020/12/06 01:03:45;;;;;;;84.03;37.47;;;;;;;;;;5036658;28;20049;-86
2020/12/06 01:06:16;;;;;;;67.93;33.30;;;;;;;;;;5036940;28;20052;-87
2020/12/06 01:08:42;;;;;;;73.10;36.33;;;;;;;;;;5048204;28;20072;-87
2020/12/06 01:11:14;;;;;;;67.65;32.85;;;;;;;;;;5035076;28;20056;-87
2020/12/06 01:13:40;;;;;;;70.80;35.53;;;;;;;;;;5035026;28;20064;-87
2020/12/06 01:16:06;;;;;;;69.20;34.28;;;;;;;;;;5032872;28;20054;-87
2020/12/06 01:18:32;;;;;;;75.80;37.22;;;;;;;;;;5035340;28;20052;-87
2020/12/06 01:21:05;;;;;;;72.20;34.85;;;;;;;;;;5035535;28;20088;-87
2020/12/06 01:23:34;;;;;;;72.35;35.60;;;;;;;;;;5034792;28;20042;-87
2020/12/06 01:26:00;;;;;;;75.93;36.38;;;;;;;;;;5035663;28;20064;-87
2020/12/06 01:28:27;;;;;;;80.13;36.50;;;;;;;;;;5034719;28;20076;-87
2020/12/06 01:30:54;;;;;;;73.75;34.38;;;;;;;;;;5035028;28;20381;-86
2020/12/06 01:33:21;;;;;;;65.50;33.42;;;;;;;;;;5034740;28;20485;-87
2020/12/06 01:35:46;;;;;;;83.25;36.65;;;;;;;;;;5027904;28;20042;-87
2020/12/06 01:38:12;;;;;;;62.47;31.60;;;;;;;;;;5034249;28;20053;-86
2020/12/06 01:40:39;;;;;;;63.63;32.30;;;;;;;;;;5035005;28;20072;-87
2020/12/06 01:43:05;;;;;;;82.60;38.45;;;;;;;;;;5034826;28;20410;-87
2020/12/06 01:45:32;;;;;;;67.57;33.72;;;;;;;;;;5026838;28;20092;-87
2020/12/06 01:47:58;;;;;;;64.03;32.55;;;;;;;;;;5014702;28;20142;-86
2020/12/06 01:50:24;;;;;;;60.50;33.33;;;;;;;;;;5014865;28;20499;-86
2020/12/06 01:52:50;;;;;;;63.47;31.80;;;;;;;;;;5015459;28;20050;-87
2020/12/06 01:55:17;;;;;;;73.90;35.90;;;;;;;;;;5015684;28;20103;-86
2020/12/06 01:57:43;;;;;;;64.10;31.27;;;;;;;;;;5015835;28;20053;-86
2020/12/06 02:00:12;;;;;;;68.25;31.75;;;;;;;;;;5024637;28;20484;-87
2020/12/06 02:02:38;;;;;;;73.07;35.33;;;;;;;;;;5026261;28;20042;-87
2020/12/06 02:07:46;;;;;;;71.43;32.97;;;;;;;;;;5031674;28;20048;-86
2020/12/06 02:10:12;;;;;;;70.25;32.17;;;;;;;;;;5033447;28;20053;-87
2020/12/06 02:12:38;;;;;;;76.10;33.92;;;;;;;;;;5053049;28;20048;-87
2020/12/06 02:15:04;;;;;;;66.78;33.03;;;;;;;;;;5061599;28;20041;-88
2020/12/06 02:17:38;;;;;;;90.95;38.03;;;;;;;;;;5075087;28;20190;-89
2020/12/06 02:20:05;;;;;;;77.05;36.03;;;;;;;;;;5073161;28;20052;-89
2020/12/06 02:22:31;;;;;;;68.35;34.05;;;;;;;;;;5073782;28;20044;-90
2020/12/06 02:24:57;;;;;;;78.53;36.25;;;;;;;;;;5073197;28;20048;-89
2020/12/06 02:27:25;;;;;;;61.00;31.17;;;;;;;;;;5068265;28;20071;-90
2020/12/06 02:29:51;;;;;;;68.03;33.03;;;;;;;;;;5053317;28;20405;-89
2020/12/06 02:32:19;;;;;;;69.07;33.15;;;;;;;;;;5054052;28;20132;-89
2020/12/06 02:34:45;;;;;;;61.85;31.10;;;;;;;;;;5053314;28;20060;-90
2020/12/06 02:37:13;;;;;;;62.50;30.80;;;;;;;;;;5059608;28;20072;-91
2020/12/06 02:39:39;;;;;;;65.15;31.20;;;;;;;;;;5053070;28;20109;-87
2020/12/06 02:42:05;;;;;;;64.20;31.35;;;;;;;;;;5051475;28;20045;-86
2020/12/06 02:44:31;;;;;;;58.90;30.17;;;;;;;;;;5052669;28;20057;-87
2020/12/06 02:46:58;;;;;;;68.45;32.58;;;;;;;;;;5055318;28;20143;-86
2020/12/06 02:49:24;;;;;;;58.22;30.25;;;;;;;;;;5057280;28;20052;-87
2020/12/06 02:51:50;;;;;;;61.90;31.42;;;;;;;;;;5057608;28;20053;-86
2020/12/06 02:54:17;;;;;;;57.53;31.42;;;;;;;;;;5057421;28;20055;-87
2020/12/06 02:56:43;;;;;;;54.83;27.90;;;;;;;;;;5058218;28;20052;-90
2020/12/06 02:59:09;;;;;;;53.45;29.70;;;;;;;;;;5057613;28;20045;-86
2020/12/06 03:01:35;;;;;;;59.03;29.55;;;;;;;;;;5058081;28;20052;-86
2020/12/06 03:04:01;;;;;;;66.78;31.58;;;;;;;;;;5078456;28;20045;-87
2020/12/06 03:06:27;;;;;;;63.65;30.45;;;;;;;;;;5070285;28;20539;-87
2020/12/06 03:08:53;;;;;;;62.75;29.75;;;;;;;;;;5073634;28;20041;-87
2020/12/06 03:11:25;;;;;;;63.30;30.73;;;;;;;;;;5072837;28;20059;-87
2020/12/06 03:13:51;;;;;;;66.05;30.63;;;;;;;;;;5056996;28;20056;-86
2020/12/06 03:16:16;;;;;;;71.63;32.15;;;;;;;;;;5057466;28;20401;-86
2020/12/06 03:18:42;;;;;;;60.35;30.02;;;;;;;;;;5057421;28;20053;-86
2020/12/06 03:21:08;;;;;;;64.88;31.35;;;;;;;;;;5057587;28;20132;-86
2020/12/06 03:23:34;;;;;;;89.03;35.35;;;;;;;;;;5057202;28;20049;-86
2020/12/06 03:26:00;;;;;;;98.38;36.42;;;;;;;;;;5056912;28;20509;-86
2020/12/06 03:28:27;;;;;;;75.90;33.90;;;;;;;;;;5056907;28;20049;-86
2020/12/06 03:30:53;;;;;;;62.40;31.77;;;;;;;;;;5057151;28;20052;-86
2020/12/06 03:33:19;;;;;;;78.88;34.90;;;;;;;;;;5056883;28;20052;-88
2020/12/06 03:35:45;;;;;;;68.32;31.40;;;;;;;;;;5056635;28;20128;-87
2020/12/06 03:38:11;;;;;;;64.00;32.05;;;;;;;;;;5036380;28;20432;-87
2020/12/06 03:40:37;;;;;;;68.30;31.90;;;;;;;;;;5036741;28;20092;-88
2020/12/06 03:43:03;;;;;;;67.72;31.98;;;;;;;;;;5036693;28;20060;-87
2020/12/06 03:45:30;;;;;;;72.03;33.92;;;;;;;;;;5036929;28;20045;-87
2020/12/06 03:47:56;;;;;;;55.72;29.75;;;;;;;;;;5037611;28;20377;-87
2020/12/06 03:50:24;;;;;;;83.25;35.90;;;;;;;;;;5037127;28;20050;-86
2020/12/06 03:52:50;;;;;;;64.28;31.15;;;;;;;;;;5037101;28;20053;-86
2020/12/06 03:55:19;;;;;;;98.50;37.20;;;;;;;;;;5037228;28;20088;-86
2020/12/06 03:57:49;;;;;;;57.72;29.50;;;;;;;;;;5036296;28;20056;-87
2020/12/06 04:00:20;;;;;;;56.95;28.45;;;;;;;;;;5036607;28;20057;-87
2020/12/06 04:02:48;;;;;;;72.57;32.70;;;;;;;;;;5036561;28;20649;-87
2020/12/06 04:05:19;;;;;;;66.07;30.92;;;;;;;;;;5036305;28;20049;-87
2020/12/06 04:07:45;;;;;;;63.65;29.63;;;;;;;;;;5036537;28;20053;-87
2020/12/06 04:10:11;;;;;;;63.85;29.58;;;;;;;;;;5036375;28;20058;-87
2020/12/06 04:12:37;;;;;;;65.68;31.13;;;;;;;;;;5036291;28;20132;-87
2020/12/06 04:15:04;;;;;;;59.97;28.52;;;;;;;;;;5036422;28;20060;-86
2020/12/06 04:17:30;;;;;;;87.00;34.53;;;;;;;;;;5036060;28;20342;-87
2020/12/06 04:19:59;;;;;;;60.67;31.15;;;;;;;;;;5036562;28;20084;-86
2020/12/06 04:22:27;;;;;;;56.50;29.92;;;;;;;;;;5035971;28;20061;-87
2020/12/06 04:24:53;;;;;;;67.65;32.05;;;;;;;;;;5035929;28;20465;-86
2020/12/06 04:27:25;;;;;;;63.90;30.90;;;;;;;;;;5036021;28;20046;-87
2020/12/06 04:29:51;;;;;;;61.58;31.92;;;;;;;;;;5036253;28;20053;-87
2020/12/06 04:32:19;;;;;;;65.55;30.75;;;;;;;;;;5036115;28;20100;-87
2020/12/06 04:34:47;;;;;;;64.93;30.92;;;;;;;;;;5035967;28;20049;-87
2020/12/06 04:37:14;;;;;;;57.53;29.25;;;;;;;;;;5037143;28;20060;-88
2020/12/06 04:39:46;;;;;;;71.45;30.45;;;;;;;;;;5039861;28;20049;-87
2020/12/06 04:42:12;;;;;;;66.70;31.55;;;;;;;;;;5018527;28;20050;-87
2020/12/06 04:44:38;;;;;;;65.80;30.23;;;;;;;;;;5016157;28;20050;-88
2020/12/06 04:47:06;;;;;;;66.13;30.02;;;;;;;;;;5015796;28;20053;-87
2020/12/06 04:49:43;;;;;;;60.60;28.63;;;;;;;;;;5016064;28;20503;-87
2020/12/06 04:52:11;;;;;;;;;;;;;;;;;;5015921;28;20052;-88
2020/12/06 04:54:41;;;;;;;52.42;26.90;;;;;;;;;;5016248;28;20121;-87
2020/12/06 04:57:10;;;;;;;50.65;26.17;;;;;;;;;;5016237;28;20061;-88
2020/12/06 04:59:40;;;;;;;53.75;27.83;;;;;;;;;;5020464;28;20046;-87
2020/12/06 05:02:09;;;;;;;58.58;26.85;;;;;;;;;;5035409;28;20494;-88
2020/12/06 05:04:41;;;;;;;57.72;29.40;;;;;;;;;;5035403;28;20052;-87
2020/12/06 05:07:07;;;;;;;58.00;29.95;;;;;;;;;;5035074;28;20057;-87
2020/12/06 05:09:35;;;;;;;70.57;29.58;;;;;;;;;;5029710;28;20054;-87
2020/12/06 05:12:03;;;;;;;60.70;30.67;;;;;;;;;;5015000;28;20549;-87
2020/12/06 05:14:29;;;;;;;58.20;30.55;;;;;;;;;;5015485;28;20486;-89
2020/12/06 05:16:56;;;;;;;55.75;28.30;;;;;;;;;;5015527;28;20112;-87
2020/12/06 05:19:24;;;;;;;59.67;30.27;;;;;;;;;;5014687;28;20073;-87
2020/12/06 05:21:50;;;;;;;61.65;31.00;;;;;;;;;;5016206;28;20061;-87
2020/12/06 05:24:16;;;;;;;59.42;29.98;;;;;;;;;;5015024;28;20119;-87
2020/12/06 05:26:45;;;;;;;62.72;29.65;;;;;;;;;;5015019;28;20046;-87
2020/12/06 05:29:13;;;;;;;59.83;27.83;;;;;;;;;;5014996;28;20045;-88
2020/12/06 05:31:41;;;;;;;61.72;28.17;;;;;;;;;;5015205;28;20081;-87
2020/12/06 05:34:07;;;;;;;60.22;30.60;;;;;;;;;;5015042;28;20057;-87
2020/12/06 05:36:33;;;;;;;59.65;29.85;;;;;;;;;;5014966;28;20132;-87
2020/12/06 05:38:59;;;;;;;103.82;38.35;;;;;;;;;;5033549;28;20049;-88
2020/12/06 05:41:27;;;;;;;61.63;31.35;;;;;;;;;;5034546;28;20068;-86
2020/12/06 05:43:53;;;;;;;220.02;45.78;;;;;;;;;;5034469;28;20049;-87
2020/12/06 05:46:19;;;;;;;132.82;36.78;;;;;;;;;;5034280;28;20048;-86
2020/12/06 05:48:46;;;;;;;89.32;34.67;;;;;;;;;;5034521;28;20045;-87
2020/12/06 05:51:13;;;;;;;71.65;31.02;;;;;;;;;;5034261;28;20108;-87
2020/12/06 05:53:39;;;;;;;68.78;31.50;;;;;;;;;;5034428;28;20045;-87
2020/12/06 05:56:14;;;;;;;67.22;30.67;;;;;;;;;;5034581;28;20049;-88
2020/12/06 05:58:41;;;;;;;61.38;29.08;;;;;;;;;;5034625;28;20042;-87
2020/12/06 06:01:07;;;;;;;79.65;32.85;;;;;;;;;;5034327;28;20045;-86
2020/12/06 06:03:35;;;;;;;68.05;31.20;;;;;;;;;;5034125;28;20060;-87
2020/12/06 06:06:04;;;;;;;98.72;32.20;;;;;;;;;;5034217;28;20675;-87
2020/12/06 06:08:30;;;;;;;65.28;30.38;;;;;;;;;;5018757;28;20050;-87
2020/12/06 06:11:19;;;;;;;75.82;32.38;;;;;;;;;;5014769;28;20046;-86
2020/12/06 06:13:50;;;;;;;73.32;32.50;;;;;;;;;;5014542;28;20496;-87
2020/12/06 06:16:16;;;;;;;76.50;32.22;;;;;;;;;;5014483;28;20060;-88
2020/12/06 06:18:45;;;;;;;69.50;31.90;;;;;;;;;;5014370;28;20498;-88
2020/12/06 06:21:11;;;;;;;103.65;35.95;;;;;;;;;;5019992;28;20054;-88
2020/12/06 06:23:38;;;;;;;77.05;32.50;;;;;;;;;;5019571;28;20053;-87
2020/12/06 06:26:04;;;;;;;124.63;39.05;;;;;;;;;;5020240;28;20046;-88
2020/12/06 06:28:31;;;;;;;92.85;33.85;;;;;;;;;;5035012;28;20053;-87
2020/12/06 06:31:01;;;;;;;77.32;33.10;;;;;;;;;;5041308;28;20054;-87
2020/12/06 06:33:28;;;;;;;84.57;39.42;;;;;;;;;;5042818;28;20425;-87
2020/12/06 06:35:55;;;;;;;106.40;37.03;;;;;;;;;;5042382;28;20049;-87
2020/12/06 06:38:27;;;;;;;111.70;37.20;;;;;;;;;;5044769;28;20049;-88
2020/12/06 06:40:55;;;;;;;98.05;35.47;;;;;;;;;;5052844;28;20063;-87
2020/12/06 06:43:26;;;;;;;84.93;34.28;;;;;;;;;;5041722;28;20045;-87
2020/12/06 06:45:52;;;;;;;103.40;37.47;;;;;;;;;;5038090;28;20441;-87
2020/12/06 06:48:18;;;;;;;93.85;37.13;;;;;;;;;;5037402;28;20077;-87
2020/12/06 06:50:47;;;;;;;105.97;39.13;;;;;;;;;;5037570;28;20049;-87
2020/12/06 06:53:16;;;;;;;97.78;36.67;;;;;;;;;;5043577;28;20061;-88
2020/12/06 06:55:50;;;;;;;105.63;37.90;;;;;;;;;;5049224;28;20497;-88
2020/12/06 06:58:17;;;;;;;82.03;34.58;;;;;;;;;;5053850;28;20045;-88
2020/12/06 07:00:43;;;;;;;87.43;33.70;;;;;;;;;;5053558;28;20092;-89
2020/12/06 07:03:12;;;;;;;78.00;32.40;;;;;;;;;;5037017;28;20465;-87
2020/12/06 07:05:38;;;;;;;88.30;33.13;;;;;;;;;;5037535;28;20085;-87
2020/12/06 07:08:10;;;;;;;84.65;31.92;;;;;;;;;;5039089;28;20053;-87
2020/12/06 07:10:39;;;;;;;90.55;31.95;;;;;;;;;;5053743;28;20060;-86
2020/12/06 07:13:06;;;;;;;85.57;32.35;;;;;;;;;;5048880;28;20580;-87
2020/12/06 07:15:32;;;;;;;131.77;36.97;;;;;;;;;;5042814;28;20049;-87
2020/12/06 07:17:58;;;;;;;104.15;34.67;;;;;;;;;;5037348;28;20052;-86
2020/12/06 07:20:26;;;;;;;121.75;36.90;;;;;;;;;;5038149;28;20049;-86
2020/12/06 07:22:53;;;;;;;95.32;33.50;;;;;;;;;;5037777;28;20386;-87
2020/12/06 07:25:19;;;;;;;117.13;35.88;;;;;;;;;;5020803;28;20053;-88
2020/12/06 07:27:46;;;;;;;155.18;37.60;;;;;;;;;;5039451;28;20048;-87
2020/12/06 07:30:14;;;;;;;93.55;34.45;;;;;;;;;;5044900;28;20046;-87
2020/12/06 07:32:40;;;;;;;139.63;39.67;;;;;;;;;;5042344;28;20045;-87
2020/12/06 07:35:08;;;;;;;95.10;36.00;;;;;;;;;;5037857;28;20057;-86
2020/12/06 07:37:34;;;;;;;109.10;34.90;;;;;;;;;;5037219;28;20058;-86
2020/12/06 07:40:05;;;;;;;91.53;31.67;;;;;;;;;;5037224;28;20056;-87
2020/12/06 07:42:31;;;;;;;115.45;36.65;;;;;;;;;;5042053;28;20073;-87
2020/12/06 07:44:59;;;;;;;118.05;37.33;;;;;;;;;;5036696;28;20049;-87
2020/12/06 07:47:26;;;;;;;88.40;34.20;;;;;;;;;;5036663;28;20379;-88
2020/12/06 07:49:53;;;;;;;93.03;35.05;;;;;;;;;;5037002;28;20053;-87
2020/12/06 07:52:22;;;;;;;143.48;41.22;;;;;;;;;;5037091;28;20051;-86
2020/12/06 07:54:52;;;;;;;97.60;37.13;;;;;;;;;;5056942;28;20420;-87
2020/12/06 07:57:20;;;;;;;100.68;35.50;;;;;;;;;;5056293;28;20044;-87
2020/12/06 07:59:46;;;;;;;85.85;34.35;;;;;;;;;;5056671;28;20424;-87
2020/12/06 08:02:13;;;;;;;160.77;44.53;;;;;;;;;;5057086;28;20136;-87
2020/12/06 08:04:39;;;;;;;124.40;39.67;;;;;;;;;;5017313;28;20150;-87
2020/12/06 08:07:11;;;;;;;121.40;38.50;;;;;;;;;;5017343;28;20057;-87
2020/12/06 08:09:39;;;;;;;98.07;33.85;;;;;;;;;;5046958;28;20401;-87
2020/12/06 08:12:06;;;;;;;133.88;40.10;;;;;;;;;;5057224;28;20040;-87
2020/12/06 08:14:32;;;;;;;130.88;39.05;;;;;;;;;;5058254;28;20053;-86
2020/12/06 08:16:59;;;;;;;97.00;33.95;;;;;;;;;;5058362;28;20076;-87
2020/12/06 08:19:27;;;;;;;107.80;37.55;;;;;;;;;;5057417;28;20049;-87
2020/12/06 08:21:58;;;;;;;108.03;37.25;;;;;;;;;;5057637;28;20053;-87
2020/12/06 08:24:24;;;;;;;90.70;32.47;;;;;;;;;;5040376;28;20046;-85
2020/12/06 08:26:51;;;;;;;92.55;32.72;;;;;;;;;;5050332;28;20481;-85
2020/12/06 08:29:17;;;;;;;78.28;31.80;;;;;;;;;;5055391;28;20048;-88
2020/12/06 08:31:45;;;;;;;81.57;31.10;;;;;;;;;;5055491;28;20071;-88
2020/12/06 08:34:13;;;;;;;93.55;33.38;;;;;;;;;;5055044;28;20041;-88
2020/12/06 08:36:40;;;;;;;89.57;34.67;;;;;;;;;;5055338;28;20049;-88
2020/12/06 08:39:23;;;;;;;79.07;30.15;;;;;;;;;;5055068;28;20049;-87
2020/12/06 08:41:51;;;;;;;85.32;32.20;;;;;;;;;;5020604;28;20417;-88
2020/12/06 08:44:17;;;;;;;69.20;29.98;;;;;;;;;;5049607;28;20048;-87
2020/12/06 08:46:50;;;;;;;68.70;27.48;;;;;;;;;;5044185;28;20623;-88
2020/12/06 08:49:17;;;;;;;67.78;28.10;;;;;;;;;;5034868;28;20501;-87
2020/12/06 08:51:51;;;;;;;74.32;28.63;;;;;;;;;;5035438;28;20049;-89
2020/12/06 08:54:32;;;;;;;67.82;27.60;;;;;;;;;;5034946;28;20100;-88
2020/12/06 08:57:06;;;;;;;62.47;25.50;;;;;;;;;;5035661;28;20058;-88
2020/12/06 08:59:36;;;;;;;71.50;28.25;;;;;;;;;;5035133;28;20072;-88
2020/12/06 09:02:01;;;;;;;58.80;24.77;;;;;;;;;;5035623;28;20111;-88
2020/12/06 09:04:27;;;;;;;52.17;22.50;;;;;;;;;;5034431;28;20046;-88
2020/12/06 09:06:56;;;;;;;66.68;27.60;;;;;;;;;;5034865;28;20053;-89
2020/12/06 09:09:22;;;;;;;50.60;23.73;;;;;;;;;;5034593;28;20536;-89
2020/12/06 09:11:51;;;;;;;52.28;23.77;;;;;;;;;;5002147;28;20057;-85
2020/12/06 09:14:17;;;;;;;54.45;24.98;;;;;;;;;;5036046;28;20056;-85
2020/12/06 09:16:45;;;;;;;57.60;23.27;;;;;;;;;;5019298;28;20041;-88
2020/12/06 09:19:11;;;;;;;56.30;23.88;;;;;;;;;;5035294;28;20497;-89
2020/12/06 09:21:40;;;;;;;51.67;24.10;;;;;;;;;;5035048;28;20049;-89
2020/12/06 09:24:08;;;;;;;49.40;23.60;;;;;;;;;;5031181;28;20072;-86
2020/12/06 09:26:33;;;;;;;48.22;22.35;;;;;;;;;;5034562;28;20046;-89
2020/12/06 09:29:00;;;;;;;40.83;21.55;;;;;;;;;;5034526;28;20100;-87
2020/12/06 09:31:26;;;;;;;43.92;20.45;;;;;;;;;;5037446;28;20063;-88
2020/12/06 09:33:53;;;;;;;44.13;21.30;;;;;;;;;;5036709;28;20050;-88
2020/12/06 09:36:19;;;;;;;54.58;25.75;;;;;;;;;;5047778;28;20048;-88
2020/12/06 09:38:45;;;;;;;42.47;20.27;;;;;;;;;;5054273;28;20056;-88
2020/12/06 09:41:12;;;;;;;46.40;21.75;;;;;;;;;;5043124;28;20049;-88
2020/12/06 09:43:39;;;;;;;51.40;24.52;;;;;;;;;;5029527;28;20050;-88
2020/12/06 09:46:11;;;;;;;48.10;23.90;;;;;;;;;;5016705;28;20073;-88
2020/12/06 09:48:38;;;;;;;56.20;24.17;;;;;;;;;;5001201;28;20053;-88
2020/12/06 09:51:05;;;;;;;44.20;22.42;;;;;;;;;;5022046;28;20053;-88
2020/12/06 09:53:31;;;;;;;39.30;19.95;;;;;;;;;;5022248;28;20056;-86
2020/12/06 09:55:57;;;;;;;42.88;21.95;;;;;;;;;;5016273;28;20474;-87
2020/12/06 09:58:31;;;;;;;34.60;18.42;;;;;;;;;;5017150;28;20049;-88
2020/12/06 10:00:57;;;;;;;36.38;17.88;;;;;;;;;;5018937;28;20138;-88
2020/12/06 10:03:23;;;;;;;43.10;20.65;;;;;;;;;;5016944;28;20055;-88
2020/12/06 10:05:51;;;;;;;39.92;19.45;;;;;;;;;;5016564;28;20436;-88
2020/12/06 10:08:17;;;;;;;46.85;23.13;;;;;;;;;;5016805;28;20056;-88
2020/12/06 10:10:47;;;;;;;43.85;20.15;;;;;;;;;;5016996;28;20107;-87
2020/12/06 10:13:16;;;;;;;37.30;19.15;;;;;;;;;;5032852;28;20105;-88
2020/12/06 10:15:43;;;;;;;35.65;18.67;;;;;;;;;;5027068;28;20051;-88
2020/12/06 10:18:11;;;;;;;39.80;18.05;;;;;;;;;;5036314;28;20053;-89
2020/12/06 10:20:37;;;;;;;41.00;19.10;;;;;;;;;;5036438;28;20516;-88
2020/12/06 10:23:03;;;;;;;46.38;20.15;;;;;;;;;;5020295;28;20095;-88
2020/12/06 10:25:39;;;;;;;;;;;;;;;;;;;;;
2020/12/06 10:28:05;;;;;;;36.22;17.35;;;;;;;;;;5017658;28;20515;-88
2020/12/06 10:30:31;;;;;;;39.47;19.67;;;;;;;;;;5000261;28;20084;-88
2020/12/06 10:32:59;;;;;;;37.38;17.83;;;;;;;;;;5016009;28;20053;-87
2020/12/06 10:35:25;;;;;;;34.67;17.88;;;;;;;;;;5033438;28;20053;-87
2020/12/06 10:37:51;;;;;;;33.92;17.05;;;;;;;;;;5033878;28;20100;-87
2020/12/06 10:40:19;;;;;;;39.67;17.30;;;;;;;;;;5040379;28;20118;-87
2020/12/06 10:42:46;;;;;;;35.00;16.65;;;;;;;;;;5028455;28;20048;-88
2020/12/06 10:45:12;;;;;;;33.22;16.80;;;;;;;;;;5059166;28;20045;-88
2020/12/06 10:47:38;;;;;;;34.88;15.77;;;;;;;;;;5047920;28;20044;-88
2020/12/06 10:50:05;;;;;;;32.47;16.52;;;;;;;;;;5033390;28;20400;-87
2020/12/06 10:52:31;;;;;;;34.42;15.13;;;;;;;;;;5035819;28;20083;-87
2020/12/06 10:54:57;;;;;;;30.10;15.05;;;;;;;;;;5019393;28;20114;-87
2020/12/06 10:57:23;;;;;;;33.45;15.38;;;;;;;;;;5053412;28;20481;-86
2020/12/06 10:59:53;;;;;;;34.35;14.70;;;;;;;;;;5035925;28;20076;-87
2020/12/06 11:02:19;;;;;;;34.70;15.55;;;;;;;;;;5053304;28;20460;-87
2020/12/06 11:04:45;;;;;;;30.02;14.90;;;;;;;;;;5035685;28;20048;-87
2020/12/06 11:07:13;;;;;;;33.45;16.58;;;;;;;;;;5023692;28;20072;-87
2020/12/06 11:09:39;;;;;;;37.70;17.88;;;;;;;;;;5003002;28;20053;-87
2020/12/06 11:12:06;;;;;;;33.33;16.67;;;;;;;;;;5053928;28;20132;-87
2020/12/06 11:14:32;;;;;;;31.38;14.20;;;;;;;;;;5057145;28;20049;-88
2020/12/06 11:16:59;;;;;;;30.50;13.80;;;;;;;;;;5037332;28;20054;-87
2020/12/06 11:19:25;;;;;;;26.70;14.20;;;;;;;;;;5025631;28;20057;-88
2020/12/06 11:21:51;;;;;;;29.77;13.88;;;;;;;;;;5037980;28;20400;-87
2020/12/06 11:24:19;;;;;;;29.95;14.43;;;;;;;;;;5038934;28;20057;-88
2020/12/06 11:26:45;;;;;;;32.85;13.27;;;;;;;;;;5035730;28;20045;-89
2020/12/06 11:29:11;;;;;;;25.95;14.18;;;;;;;;;;5018952;28;20049;-88
2020/12/06 11:31:37;;;;;;;29.13;14.95;;;;;;;;;;5035865;28;20052;-88
2020/12/06 11:34:06;;;;;;;26.38;12.10;;;;;;;;;;5049897;28;20045;-87
2020/12/06 11:36:32;;;;;;;27.02;13.75;;;;;;;;;;5056490;28;20088;-87
2020/12/06 11:39:00;;;;;;;28.27;12.90;;;;;;;;;;5055820;28;20041;-88
2020/12/06 11:41:30;;;;;;;27.15;13.73;;;;;;;;;;5053255;28;20048;-88
2020/12/06 11:44:00;;;;;;;26.15;13.68;;;;;;;;;;5021434;28;20068;-89
2020/12/06 11:46:26;;;;;;;30.48;14.45;;;;;;;;;;5052956;28;20051;-89
2020/12/06 11:48:52;;;;;;;30.38;14.63;;;;;;;;;;5036002;28;20045;-87
2020/12/06 11:51:20;;;;;;;25.10;13.98;;;;;;;;;;5018480;28;20049;-87
2020/12/06 11:53:47;;;;;;;27.15;14.27;;;;;;;;;;5038560;28;20140;-85
2020/12/06 11:56:15;;;;;;;28.40;14.10;;;;;;;;;;5038594;28;20049;-88
2020/12/06 11:58:45;;;;;;;26.23;12.57;;;;;;;;;;5038314;28;20077;-89
2020/12/06 12:01:11;;;;;;;26.95;15.55;;;;;;;;;;5003921;28;20061;-89
2020/12/06 12:03:37;;;;;;;26.73;16.50;;;;;;;;;;5036855;28;20053;-87
2020/12/06 12:06:03;;;;;;;26.58;14.30;;;;;;;;;;5018423;28;20057;-87
2020/12/06 12:08:30;;;;;;;19.88;11.77;;;;;;;;;;5036718;28;20056;-88
2020/12/06 12:10:59;;;;;;;26.77;13.30;;;;;;;;;;5002820;28;20057;-86
2020/12/06 12:13:25;;;;;;;18.38;11.98;;;;;;;;;;5037251;28;20046;-87
2020/12/06 12:15:52;;;;;;;23.38;13.32;;;;;;;;;;5036123;28;20057;-87
2020/12/06 12:18:19;;;;;;;21.30;12.20;;;;;;;;;;5035110;28;20053;-88
2020/12/06 12:20:45;;;;;;;26.88;13.30;;;;;;;;;;5036064;28;20054;-87
2020/12/06 12:23:11;;;;;;;21.13;11.73;;;;;;;;;;4985904;28;20080;-87
2020/12/06 12:25:39;;;;;;;24.20;11.50;;;;;;;;;;5035762;28;20053;-86
2020/12/06 12:28:05;;;;;;;25.50;13.18;;;;;;;;;;5001596;28;20084;-86
2020/12/06 12:30:31;;;;;;;22.45;12.48;;;;;;;;;;5018441;28;20053;-86
2020/12/06 12:33:03;;;;;;;22.02;11.68;;;;;;;;;;5035168;28;20053;-87
2020/12/06 12:35:33;;;;;;;24.13;13.25;;;;;;;;;;5022603;28;20680;-87
2020/12/06 12:38:00;;;;;;;21.58;11.93;;;;;;;;;;5030545;28;20049;-87
2020/12/06 12:40:26;;;;;;;23.02;12.88;;;;;;;;;;5002878;28;20061;-87
2020/12/06 12:42:58;;;;;;;22.77;12.90;;;;;;;;;;5030620;28;20049;-86
2020/12/06 12:45:25;;;;;;;24.98;12.50;;;;;;;;;;5003958;28;20064;-87
2020/12/06 12:47:55;;;;;;;23.77;12.65;;;;;;;;;;5037079;28;20056;-88
2020/12/06 12:50:22;;;;;;;21.55;11.68;;;;;;;;;;5021181;28;20049;-87
2020/12/06 12:52:49;;;;;;;18.00;11.15;;;;;;;;;;5030565;28;20049;-87
2020/12/06 12:55:17;;;;;;;20.73;12.05;;;;;;;;;;5016296;28;20077;-87
2020/12/06 12:57:43;;;;;;;19.80;11.10;;;;;;;;;;5015067;28;20057;-87
2020/12/06 13:00:11;;;;;;;22.60;12.27;;;;;;;;;;5030568;28;20057;-85
2020/12/06 13:02:39;;;;;;;19.70;11.57;;;;;;;;;;5026269;28;20112;-86
2020/12/06 13:05:20;;;;;;;22.70;12.48;;;;;;;;;;5015493;28;20049;-87
2020/12/06 13:07:57;;;;;;;24.33;12.98;;;;;;;;;;5031469;28;20049;-86
2020/12/06 13:10:26;;;;;;;25.10;12.27;;;;;;;;;;5046409;28;20053;-86
2020/12/06 13:12:54;;;;;;;27.80;13.50;;;;;;;;;;5019744;28;20045;-86
2020/12/06 13:15:20;;;;;;;24.20;12.90;;;;;;;;;;5048266;28;20051;-86
2020/12/06 13:17:49;;;;;;;30.10;13.40;;;;;;;;;;5054339;28;20049;-87
2020/12/06 13:20:16;;;;;;;26.50;13.30;;;;;;;;;;5034444;28;20049;-88
2020/12/06 13:22:49;;;;;;;26.40;13.15;;;;;;;;;;5037703;28;20560;-86
2020/12/06 13:25:15;;;;;;;26.55;12.60;;;;;;;;;;5028842;28;20131;-86
2020/12/06 13:27:41;;;;;;;29.83;13.50;;;;;;;;;;5032792;28;20233;-88
2020/12/06 13:30:08;;;;;;;26.20;13.55;;;;;;;;;;5034228;28;20045;-88
2020/12/06 13:32:34;;;;;;;31.92;14.82;;;;;;;;;;5030278;28;20049;-88
2020/12/06 13:35:04;;;;;;;33.38;17.90;;;;;;;;;;5016623;28;20100;-89
2020/12/06 13:37:42;;;;;;;28.77;16.63;;;;;;;;;;5041553;28;20059;-88
2020/12/06 13:40:09;;;;;;;31.35;17.65;;;;;;;;;;5007253;28;20478;-88
2020/12/06 13:42:35;;;;;;;27.95;15.05;;;;;;;;;;5039162;28;20045;-88
2020/12/06 13:45:01;;;;;;;24.58;13.00;;;;;;;;;;5051953;28;20667;-88
2020/12/06 13:47:27;;;;;;;32.80;14.02;;;;;;;;;;5024393;28;20042;-87
2020/12/06 13:49:57;;;;;;;27.58;14.10;;;;;;;;;;4994676;28;20049;-87
2020/12/06 13:52:23;;;;;;;25.38;13.15;;;;;;;;;;5039727;28;20041;-88
2020/12/06 13:54:49;;;;;;;30.13;15.38;;;;;;;;;;5036849;28;20587;-88
2020/12/06 13:57:16;;;;;;;31.50;15.77;;;;;;;;;;5016920;28;20098;-88
2020/12/06 13:59:43;;;;;;;26.10;15.15;;;;;;;;;;5016160;28;20064;-88
2020/12/06 14:02:09;;;;;;;29.13;15.38;;;;;;;;;;5015122;28;20045;-87
2020/12/06 14:04:43;;;;;;;24.88;13.75;;;;;;;;;;5017383;28;20049;-87
2020/12/06 14:07:09;;;;;;;25.33;13.60;;;;;;;;;;5017181;28;20057;-87
2020/12/06 14:09:36;;;;;;;25.98;12.88;;;;;;;;;;5034910;28;20060;-88
2020/12/06 14:12:02;;;;;;;27.92;12.57;;;;;;;;;;5017186;28;20058;-86
2020/12/06 14:14:29;;;;;;;23.35;12.65;;;;;;;;;;5051996;28;20052;-87
2020/12/06 14:16:56;;;;;;;24.52;11.63;;;;;;;;;;5043325;28;20047;-87
2020/12/06 14:19:23;;;;;;;25.77;13.45;;;;;;;;;;5053548;28;20111;-86
2020/12/06 14:21:52;;;;;;;24.75;13.65;;;;;;;;;;5037462;28;20055;-86
2020/12/06 14:24:18;;;;;;;30.45;15.50;;;;;;;;;;5038415;28;20063;-87